createdAt,value
2019-03-27T00:02:18.707Z,10.90
2019-03-27T00:04:50.508Z,10.90
2019-03-27T00:07:22.185Z,10.90
2019-03-27T00:09:54.346Z,10.90
2019-03-27T00:12:25.673Z,10.90
2019-03-27T00:14:57.350Z,10.90
2019-03-27T00:17:30.231Z,10.80
2019-03-27T00:20:02.031Z,10.80
2019-03-27T00:22:33.837Z,10.80
2019-03-27T00:25:05.277Z,10.80
2019-03-27T00:27:37.075Z,10.80
2019-03-27T00:30:10.077Z,10.80
2019-03-27T00:32:41.281Z,10.80
2019-03-27T00:35:17.761Z,10.80
2019-03-27T00:37:49.443Z,10.90
2019-03-27T00:40:21.124Z,10.90
2019-03-27T00:42:52.445Z,10.90
2019-03-27T00:45:26.741Z,10.90
2019-03-27T00:47:58.086Z,10.90
2019-03-27T00:50:30.727Z,10.80
2019-03-27T00:53:02.418Z,10.80
2019-03-27T00:55:36.132Z,10.80
2019-03-27T00:58:08.051Z,10.80
2019-03-27T01:01:07.334Z,10.80
2019-03-27T01:03:38.894Z,10.80
2019-03-27T01:06:11.895Z,10.80
2019-03-27T01:08:43.579Z,10.80
2019-03-27T01:11:14.779Z,10.80
2019-03-27T01:13:46.466Z,10.80
2019-03-27T01:16:17.899Z,10.80
2019-03-27T01:18:49.950Z,10.80
2019-03-27T01:21:21.503Z,10.80
2019-03-27T01:23:53.425Z,10.80
2019-03-27T01:26:25.345Z,10.70
2019-03-27T01:28:56.785Z,10.70
2019-03-27T01:31:28.351Z,10.70
2019-03-27T01:34:00.152Z,10.70
2019-03-27T01:36:32.191Z,10.70
2019-03-27T01:39:04.353Z,10.70
2019-03-27T01:41:35.913Z,10.70
2019-03-27T01:44:08.437Z,10.70
2019-03-27T01:46:40.715Z,10.70
2019-03-27T01:49:12.035Z,10.70
2019-03-27T01:51:44.077Z,10.70
2019-03-27T01:54:15.519Z,10.70
2019-03-27T01:56:47.319Z,10.60
2019-03-27T01:59:19.003Z,10.60
2019-03-27T02:01:50.803Z,10.60
2019-03-27T02:04:23.205Z,10.60
2019-03-27T02:06:54.887Z,10.60
2019-03-27T02:09:26.328Z,10.60
2019-03-27T02:11:58.127Z,10.60
2019-03-27T02:14:30.784Z,10.60
2019-03-27T02:17:02.689Z,10.60
2019-03-27T02:19:35.212Z,10.60
2019-03-27T02:22:08.105Z,10.60
2019-03-27T02:24:41.237Z,10.60
2019-03-27T02:27:12.535Z,10.60
2019-03-27T02:29:44.215Z,10.60
2019-03-27T02:32:15.537Z,10.60
2019-03-27T02:34:47.221Z,10.60
2019-03-27T02:37:18.784Z,10.60
2019-03-27T02:39:51.662Z,10.60
2019-03-27T02:42:24.904Z,10.50
2019-03-27T02:44:56.346Z,10.50
2019-03-27T02:47:28.271Z,10.50
2019-03-27T02:50:00.107Z,10.50
2019-03-27T02:52:31.629Z,10.50
2019-03-27T02:55:03.078Z,10.50
2019-03-27T02:57:34.511Z,10.50
2019-03-27T03:00:08.838Z,10.50
2019-03-27T03:02:40.752Z,10.50
2019-03-27T03:05:19.511Z,10.50
2019-03-27T03:07:50.596Z,10.50
2019-03-27T03:10:22.760Z,10.50
2019-03-27T03:12:54.326Z,10.40
2019-03-27T03:15:26.483Z,10.40
2019-03-27T03:17:58.161Z,10.40
2019-03-27T03:20:29.602Z,10.40
2019-03-27T03:23:00.923Z,10.40
2019-03-27T03:25:32.364Z,10.40
2019-03-27T03:28:03.928Z,10.40
2019-03-27T03:30:35.851Z,10.40
2019-03-27T03:33:07.664Z,10.30
2019-03-27T03:35:39.452Z,10.30
2019-03-27T03:38:11.135Z,10.30
2019-03-27T03:40:42.347Z,10.30
2019-03-27T03:43:13.775Z,10.30
2019-03-27T03:45:45.696Z,10.30
2019-03-27T03:48:17.380Z,10.20
2019-03-27T03:50:48.580Z,10.20
2019-03-27T03:53:20.140Z,10.20
2019-03-27T03:55:53.023Z,10.20
2019-03-27T03:58:26.623Z,10.20
2019-03-27T04:00:59.865Z,10.20
2019-03-27T04:03:33.468Z,10.20
2019-03-27T04:06:05.145Z,10.10
2019-03-27T04:08:36.951Z,10.10
2019-03-27T04:11:08.277Z,10.10
2019-03-27T04:13:39.708Z,10.10
2019-03-27T04:16:11.630Z,10.10
2019-03-27T04:18:43.074Z,10.10
2019-03-27T04:21:14.556Z,10.10
2019-03-27T04:23:45.834Z,10.10
2019-03-27T04:26:17.281Z,10.10
2019-03-27T04:28:48.598Z,10.10
2019-03-27T04:31:20.282Z,10.00
2019-03-27T04:33:52.079Z,10.00
2019-03-27T04:36:23.640Z,10.00
2019-03-27T04:38:55.922Z,10.00
2019-03-27T04:41:27.363Z,10.10
2019-03-27T04:43:59.165Z,10.10
2019-03-27T04:46:30.965Z,10.00
2019-03-27T04:49:07.357Z,10.10
2019-03-27T04:51:36.013Z,10.00
2019-03-27T04:54:07.448Z,10.00
2019-03-27T04:56:38.772Z,10.00
2019-03-27T04:59:10.577Z,10.00
2019-03-27T05:01:42.253Z,10.00
2019-03-27T05:04:14.176Z,10.00
2019-03-27T05:06:45.734Z,10.00
2019-03-27T05:09:17.788Z,10.00
2019-03-27T05:11:49.938Z,10.00
2019-03-27T05:14:21.620Z,9.90
2019-03-27T05:16:53.660Z,9.90
2019-03-27T05:19:25.100Z,9.90
2019-03-27T05:21:56.544Z,9.90
2019-03-27T05:24:27.983Z,9.90
2019-03-27T05:26:59.426Z,9.90
2019-03-27T05:29:30.870Z,9.90
2019-03-27T05:32:02.432Z,9.90
2019-03-27T05:34:34.230Z,9.90
2019-03-27T05:37:05.671Z,9.90
2019-03-27T05:39:36.991Z,9.90
2019-03-27T05:42:08.315Z,9.80
2019-03-27T05:44:39.996Z,9.80
2019-03-27T05:47:11.676Z,9.80
2019-03-27T05:49:43.600Z,9.80
2019-03-27T05:52:15.519Z,9.80
2019-03-27T05:54:47.199Z,9.80
2019-03-27T05:57:18.998Z,9.80
2019-03-27T05:59:50.565Z,9.80
2019-03-27T06:02:22.004Z,9.80
2019-03-27T06:04:54.283Z,9.80
2019-03-27T06:07:28.007Z,9.80
2019-03-27T06:09:59.694Z,9.70
2019-03-27T06:12:31.489Z,9.70
2019-03-27T06:15:03.183Z,9.70
2019-03-27T06:17:34.851Z,9.70
2019-03-27T06:20:11.937Z,9.70
2019-03-27T06:22:44.455Z,9.70
2019-03-27T06:25:16.135Z,9.70
2019-03-27T06:27:47.779Z,9.70
2019-03-27T06:30:19.377Z,9.70
2019-03-27T06:32:50.701Z,9.70
2019-03-27T06:35:23.216Z,9.70
2019-03-27T06:37:55.261Z,9.70
2019-03-27T06:40:26.703Z,9.70
2019-03-27T06:42:58.743Z,9.70
2019-03-27T06:45:30.064Z,9.70
2019-03-27T06:48:02.468Z,9.70
2019-03-27T06:50:33.910Z,9.70
2019-03-27T06:53:05.470Z,9.70
2019-03-27T06:55:36.791Z,9.70
2019-03-27T06:58:08.114Z,9.70
2019-03-27T07:00:40.032Z,9.70
2019-03-27T07:03:11.955Z,9.70
2019-03-27T07:05:43.635Z,9.70
2019-03-27T07:08:15.077Z,9.70
2019-03-27T07:10:47.477Z,9.70
2019-03-27T07:13:19.519Z,9.70
2019-03-27T07:15:52.399Z,9.70
2019-03-27T07:18:24.085Z,9.70
2019-03-27T07:20:56.841Z,9.70
2019-03-27T07:23:28.170Z,9.70
2019-03-27T07:26:00.085Z,9.70
2019-03-27T07:28:31.526Z,9.70
2019-03-27T07:31:03.807Z,9.70
2019-03-27T07:33:35.408Z,9.70
2019-03-27T07:36:07.411Z,9.70
2019-03-27T07:38:39.089Z,9.70
2019-03-27T07:41:10.651Z,9.70
2019-03-27T07:43:42.576Z,9.70
2019-03-27T07:46:14.378Z,9.70
2019-03-27T07:48:53.972Z,9.70
2019-03-27T07:51:19.056Z,9.70
2019-03-27T07:53:51.459Z,9.70
2019-03-27T07:56:23.145Z,9.70
2019-03-27T07:58:54.342Z,9.70
2019-03-27T08:01:25.783Z,9.70
2019-03-27T08:03:57.231Z,9.70
2019-03-27T08:06:29.026Z,9.70
2019-03-27T08:09:01.187Z,9.70
2019-03-27T08:11:34.520Z,9.70
2019-03-27T08:14:06.470Z,9.80
2019-03-27T08:16:37.910Z,9.80
2019-03-27T08:19:09.350Z,9.80
2019-03-27T08:21:41.633Z,9.80
2019-03-27T08:24:14.276Z,9.70
2019-03-27T08:26:46.078Z,9.70
2019-03-27T08:29:18.116Z,9.70
2019-03-27T08:31:49.318Z,9.70
2019-03-27T08:34:21.358Z,9.70
2019-03-27T08:36:52.802Z,9.70
2019-03-27T08:39:24.842Z,9.80
2019-03-27T08:41:56.046Z,9.80
2019-03-27T08:44:29.404Z,9.80
2019-03-27T08:47:00.850Z,9.80
2019-03-27T08:49:32.740Z,9.70
2019-03-27T08:52:04.330Z,9.70
2019-03-27T08:54:35.888Z,9.70
2019-03-27T08:57:07.332Z,9.70
2019-03-27T08:59:39.490Z,9.70
2019-03-27T09:02:11.052Z,9.70
2019-03-27T09:04:42.854Z,9.70
2019-03-27T09:07:14.414Z,9.80
2019-03-27T09:09:45.743Z,9.80
2019-03-27T09:12:17.178Z,9.80
2019-03-27T09:14:49.218Z,9.80
2019-03-27T09:17:20.902Z,9.80
2019-03-27T09:19:52.223Z,9.80
2019-03-27T09:22:25.341Z,9.90
2019-03-27T09:24:57.144Z,9.90
2019-03-27T09:27:28.710Z,9.90
2019-03-27T09:30:00.747Z,9.90
2019-03-27T09:32:32.186Z,10.00
2019-03-27T09:35:05.197Z,10.00
2019-03-27T09:37:36.630Z,10.00
2019-03-27T09:40:09.892Z,10.00
2019-03-27T09:42:41.553Z,10.00
2019-03-27T09:45:13.714Z,10.00
2019-03-27T09:47:45.514Z,10.10
2019-03-27T09:50:20.553Z,10.10
2019-03-27T09:52:53.798Z,10.10
2019-03-27T09:55:25.961Z,10.20
2019-03-27T09:57:59.080Z,10.20
2019-03-27T10:00:59.562Z,10.20
2019-03-27T10:03:31.367Z,10.20
2019-03-27T10:06:03.167Z,10.20
2019-03-27T10:08:35.086Z,10.30
2019-03-27T10:11:06.529Z,10.30
2019-03-27T10:13:37.966Z,10.30
2019-03-27T10:16:11.089Z,10.30
2019-03-27T10:18:47.302Z,10.30
2019-03-27T10:21:18.299Z,10.30
2019-03-27T10:23:51.174Z,10.30
2019-03-27T10:26:22.856Z,10.30
2019-03-27T10:28:55.377Z,10.30
2019-03-27T10:31:26.576Z,10.30
2019-03-27T10:33:58.736Z,10.40
2019-03-27T10:36:30.179Z,10.40
2019-03-27T10:39:01.750Z,10.40
2019-03-27T10:41:34.741Z,10.40
2019-03-27T10:44:07.142Z,10.40
2019-03-27T10:46:38.702Z,10.40
2019-03-27T10:49:10.625Z,10.50
2019-03-27T10:51:45.913Z,10.40
2019-03-27T10:54:18.791Z,10.50
2019-03-27T10:56:49.991Z,10.50
2019-03-27T10:59:22.152Z,10.50
2019-03-27T11:01:55.279Z,10.50
2019-03-27T11:04:27.553Z,10.50
2019-03-27T11:06:59.475Z,10.50
2019-03-27T11:09:31.812Z,10.50
2019-03-27T11:12:03.556Z,10.50
2019-03-27T11:14:38.169Z,10.50
2019-03-27T11:17:08.961Z,10.50
2019-03-27T11:19:40.883Z,10.50
2019-03-27T11:22:12.210Z,10.60
2019-03-27T11:24:44.242Z,10.60
2019-03-27T11:27:15.804Z,10.60
2019-03-27T11:29:47.125Z,10.60
2019-03-27T11:32:18.819Z,10.60
2019-03-27T11:34:50.250Z,10.60
2019-03-27T11:37:21.932Z,10.60
2019-03-27T11:39:53.498Z,10.70
2019-03-27T11:42:25.292Z,10.70
2019-03-27T11:44:57.093Z,10.70
2019-03-27T11:47:28.778Z,10.70
2019-03-27T11:50:00.357Z,10.70
2019-03-27T11:52:31.657Z,10.70
2019-03-27T11:55:03.459Z,10.70
2019-03-27T11:57:35.379Z,10.70
2019-03-27T12:00:08.023Z,10.80
2019-03-27T12:02:40.063Z,10.80
2019-03-27T12:05:15.946Z,10.80
2019-03-27T12:07:47.629Z,10.80
2019-03-27T12:10:19.305Z,10.80
2019-03-27T12:12:51.225Z,10.80
2019-03-27T12:15:42.350Z,10.80
2019-03-27T12:18:16.674Z,10.80
2019-03-27T12:20:58.943Z,10.80
2019-03-27T12:23:22.671Z,10.90
2019-03-27T12:25:55.325Z,10.90
2019-03-27T12:28:26.633Z,10.90
2019-03-27T12:30:58.333Z,10.90
2019-03-27T12:33:29.997Z,11.00
2019-03-27T12:36:01.799Z,11.00
2019-03-27T12:38:33.001Z,11.00
2019-03-27T12:41:05.041Z,11.00
2019-03-27T12:43:36.970Z,11.00
2019-03-27T12:46:09.484Z,11.00
2019-03-27T12:48:41.405Z,11.00
2019-03-27T12:51:13.513Z,11.00
2019-03-27T12:53:45.128Z,11.00
2019-03-27T12:56:16.567Z,11.00
2019-03-27T12:58:48.136Z,11.00
2019-03-27T13:01:20.412Z,11.00
2019-03-27T13:03:51.854Z,11.00
2019-03-27T13:06:23.658Z,11.10
2019-03-27T13:08:55.215Z,11.10
2019-03-27T13:11:26.902Z,11.10
2019-03-27T13:13:58.458Z,11.10
2019-03-27T13:16:29.777Z,11.20
2019-03-27T13:19:01.349Z,11.20
2019-03-27T13:21:34.590Z,11.20
2019-03-27T13:24:06.264Z,11.20
2019-03-27T13:26:38.543Z,11.20
2019-03-27T13:29:10.225Z,11.20
2019-03-27T13:31:41.669Z,11.20
2019-03-27T13:34:13.232Z,11.20
2019-03-27T13:36:49.162Z,11.30
2019-03-27T13:39:21.390Z,11.30
2019-03-27T13:41:53.673Z,11.30
2019-03-27T13:44:36.444Z,11.30
2019-03-27T13:46:58.702Z,11.30
2019-03-27T13:49:30.876Z,11.30
2019-03-27T13:52:02.676Z,11.30
2019-03-27T13:54:34.356Z,11.30
2019-03-27T13:57:05.682Z,11.30
2019-03-27T13:59:37.483Z,11.30
2019-03-27T14:02:08.920Z,11.30
2019-03-27T14:04:40.789Z,11.30
2019-03-27T14:07:12.164Z,11.30
2019-03-27T14:09:43.486Z,11.30
2019-03-27T14:12:15.166Z,11.30
2019-03-27T14:14:50.560Z,11.30
2019-03-27T14:17:19.970Z,11.30
2019-03-27T14:19:52.493Z,11.30
2019-03-27T14:22:24.170Z,11.30
2019-03-27T14:24:55.855Z,11.30
2019-03-27T14:27:27.294Z,11.30
2019-03-27T14:29:58.974Z,11.30
2019-03-27T14:32:30.539Z,11.30
2019-03-27T14:35:01.989Z,11.30
2019-03-27T14:37:33.543Z,11.30
2019-03-27T14:40:06.063Z,11.30
2019-03-27T14:42:37.622Z,11.40
2019-03-27T14:45:10.508Z,11.40
2019-03-27T14:47:42.067Z,11.40
2019-03-27T14:50:21.665Z,11.40
2019-03-27T14:52:53.467Z,11.40
2019-03-27T14:55:25.268Z,11.40
2019-03-27T14:57:57.548Z,11.30
2019-03-27T15:00:29.350Z,11.30
2019-03-27T15:03:01.157Z,11.30
2019-03-27T15:05:32.480Z,11.40
2019-03-27T15:08:04.551Z,11.30
2019-03-27T15:10:36.435Z,11.30
2019-03-27T15:13:09.559Z,11.40
2019-03-27T15:15:41.358Z,11.40
2019-03-27T15:18:14.120Z,11.40
2019-03-27T15:20:45.681Z,11.40
2019-03-27T15:23:17.009Z,11.40
2019-03-27T15:25:50.127Z,11.40
2019-03-27T15:28:21.325Z,11.40
2019-03-27T15:30:53.008Z,11.40
2019-03-27T15:33:24.564Z,11.40
2019-03-27T15:35:56.856Z,11.40
2019-03-27T15:38:28.168Z,11.40
2019-03-27T15:40:59.618Z,11.40
2019-03-27T15:43:31.412Z,11.40
2019-03-27T15:46:03.821Z,11.40
2019-03-27T15:48:35.253Z,11.40
2019-03-27T15:51:07.895Z,11.40
2019-03-27T15:53:39.336Z,11.40
2019-03-27T15:56:12.459Z,11.40
2019-03-27T15:58:46.662Z,11.40
2019-03-27T16:01:18.704Z,11.40
2019-03-27T16:03:50.022Z,11.40
2019-03-27T16:06:21.589Z,11.40
2019-03-27T16:08:53.384Z,11.40
2019-03-27T16:11:25.073Z,11.50
2019-03-27T16:13:56.745Z,11.50
2019-03-27T16:16:28.069Z,11.50
2019-03-27T16:19:00.111Z,11.50
2019-03-27T16:21:31.433Z,11.50
2019-03-27T16:24:06.532Z,11.50
2019-03-27T16:26:35.753Z,11.50
2019-03-27T16:29:07.436Z,11.50
2019-03-27T16:31:39.115Z,11.50
2019-03-27T16:34:10.555Z,11.50
2019-03-27T16:36:41.636Z,11.50
2019-03-27T16:39:13.448Z,11.50
2019-03-27T16:41:44.879Z,11.50
2019-03-27T16:44:16.323Z,11.50
2019-03-27T16:46:48.003Z,11.50
2019-03-27T16:49:19.691Z,11.50
2019-03-27T16:51:51.248Z,11.50
2019-03-27T16:54:22.565Z,11.50
2019-03-27T16:56:53.888Z,11.50
2019-03-27T16:59:25.329Z,11.50
2019-03-27T17:01:58.934Z,11.50
2019-03-27T17:04:30.374Z,11.50
2019-03-27T17:07:02.415Z,11.50
2019-03-27T17:09:34.098Z,11.50
2019-03-27T17:12:05.424Z,11.50
2019-03-27T17:14:37.097Z,11.50
2019-03-27T17:17:09.021Z,11.50
2019-03-27T17:19:41.659Z,11.50
2019-03-27T17:22:19.617Z,11.50
2019-03-27T17:24:49.101Z,11.50
2019-03-27T17:27:20.541Z,11.50
2019-03-27T17:29:51.863Z,11.50
2019-03-27T17:32:23.423Z,11.50
2019-03-27T17:34:55.347Z,11.50
2019-03-27T17:37:27.149Z,11.50
2019-03-27T17:39:58.954Z,11.50
2019-03-27T17:42:30.519Z,11.50
2019-03-27T17:45:01.832Z,11.50
2019-03-27T17:47:34.232Z,11.50
2019-03-27T17:52:46.118Z,11.50
2019-03-27T17:55:18.035Z,11.40
2019-03-27T17:57:50.442Z,11.40
2019-03-27T18:00:40.244Z,11.40
2019-03-27T18:03:12.649Z,11.40
2019-03-27T18:05:44.801Z,11.40
2019-03-27T18:08:16.484Z,11.40
2019-03-27T18:10:48.165Z,11.40
2019-03-27T18:13:20.085Z,11.40
2019-03-27T18:15:51.411Z,11.40
2019-03-27T18:18:23.575Z,11.40
2019-03-27T18:20:55.736Z,11.40
2019-03-27T18:23:27.170Z,11.40
2019-03-27T18:25:58.492Z,11.40
2019-03-27T18:28:30.055Z,11.40
2019-03-27T18:31:01.495Z,11.40
2019-03-27T18:33:34.286Z,11.40
2019-03-27T18:36:05.935Z,11.40
2019-03-27T18:38:38.577Z,11.40
2019-03-27T18:41:10.021Z,11.40
2019-03-27T18:43:42.064Z,11.40
2019-03-27T18:46:14.944Z,11.40
2019-03-27T18:48:49.504Z,11.40
2019-03-27T18:51:20.828Z,11.40
2019-03-27T18:53:59.592Z,11.40
2019-03-27T18:56:26.351Z,11.40
2019-03-27T18:58:57.790Z,11.40
2019-03-27T19:01:29.976Z,11.40
2019-03-27T19:04:01.872Z,11.40
2019-03-27T19:06:33.674Z,11.40
2019-03-27T19:09:08.112Z,11.40
2019-03-27T19:11:41.357Z,11.40
2019-03-27T19:14:13.160Z,11.40
2019-03-27T19:16:45.078Z,11.40
2019-03-27T19:19:16.880Z,11.40
2019-03-27T19:21:48.557Z,11.40
2019-03-27T19:24:20.365Z,11.40
2019-03-27T19:26:53.241Z,11.40
2019-03-27T19:29:24.568Z,11.40
2019-03-27T19:31:56.485Z,11.40
2019-03-27T19:34:28.286Z,11.40
2019-03-27T19:36:59.852Z,11.40
2019-03-27T19:39:31.650Z,11.40
2019-03-27T19:42:03.697Z,11.40
2019-03-27T19:44:35.495Z,11.30
2019-03-27T19:47:07.296Z,11.40
2019-03-27T19:49:39.098Z,11.30
2019-03-27T19:52:10.898Z,11.30
2019-03-27T19:54:42.579Z,11.30
2019-03-27T19:57:14.136Z,11.30
2019-03-27T19:59:45.458Z,11.30
2019-03-27T20:02:16.900Z,11.40
2019-03-27T20:04:48.822Z,11.30
2019-03-27T20:07:20.620Z,11.30
2019-03-27T20:09:52.067Z,11.40
2019-03-27T20:12:23.866Z,11.30
2019-03-27T20:14:55.428Z,11.30
2019-03-27T20:17:26.986Z,11.30
2019-03-27T20:19:58.668Z,11.30
2019-03-27T20:22:30.481Z,11.30
2019-03-27T20:25:02.403Z,11.30
2019-03-27T20:27:34.792Z,11.30
2019-03-27T20:30:09.478Z,11.30
2019-03-27T20:32:41.156Z,11.30
2019-03-27T20:35:18.600Z,11.30
2019-03-27T20:37:50.520Z,11.30
2019-03-27T20:40:22.678Z,11.30
2019-03-27T20:42:54.482Z,11.30
2019-03-27T20:45:26.293Z,11.30
2019-03-27T20:48:00.483Z,11.30
2019-03-27T20:50:32.405Z,11.30
2019-03-27T20:53:04.327Z,11.30
2019-03-27T20:55:36.605Z,11.30
2019-03-27T20:58:08.012Z,11.30
2019-03-27T21:00:41.050Z,11.30
2019-03-27T21:03:12.613Z,11.30
2019-03-27T21:05:43.938Z,11.30
2019-03-27T21:08:17.063Z,11.30
2019-03-27T21:10:49.098Z,11.30
2019-03-27T21:13:20.657Z,11.30
2019-03-27T21:15:52.334Z,11.30
2019-03-27T21:18:24.143Z,11.30
2019-03-27T21:20:55.821Z,11.30
2019-03-27T21:23:27.382Z,11.30
2019-03-27T21:25:59.304Z,11.30
2019-03-27T21:28:30.622Z,11.30
2019-03-27T21:31:02.194Z,11.30
2019-03-27T21:33:33.744Z,11.30
2019-03-27T21:36:05.312Z,11.30
2019-03-27T21:38:37.106Z,11.30
2019-03-27T21:41:08.921Z,11.30
2019-03-27T21:43:40.241Z,11.30
2019-03-27T21:46:12.871Z,11.30
2019-03-27T21:48:45.633Z,11.30
2019-03-27T21:51:17.437Z,11.30
2019-03-27T21:53:50.804Z,11.30
2019-03-27T21:56:22.359Z,11.30
2019-03-27T22:02:11.564Z,11.30
2019-03-27T22:04:43.360Z,11.20
2019-03-27T22:07:14.922Z,11.20
2019-03-27T22:09:46.606Z,11.20
2019-03-27T22:12:19.010Z,11.20
2019-03-27T22:14:50.806Z,11.20
2019-03-27T22:17:22.369Z,11.30
2019-03-27T22:19:53.809Z,11.30
2019-03-27T22:22:25.013Z,11.30
2019-03-27T22:24:56.334Z,11.30
2019-03-27T22:27:27.892Z,11.30
2019-03-27T22:29:59.573Z,11.30
2019-03-27T22:32:31.253Z,11.30
2019-03-27T22:35:02.697Z,11.30
2019-03-27T22:37:34.381Z,11.30
2019-03-27T22:40:06.421Z,11.20
2019-03-27T22:42:37.859Z,11.20
2019-03-27T22:45:10.380Z,11.20
2019-03-27T22:47:41.585Z,11.20
2019-03-27T22:50:19.267Z,11.20
2019-03-27T22:52:50.585Z,11.20
2019-03-27T22:55:22.385Z,11.20
2019-03-27T22:57:54.308Z,11.20
2019-03-27T23:00:35.467Z,11.20
2019-03-27T23:03:18.060Z,11.20
2019-03-27T23:05:41.954Z,11.20
2019-03-27T23:08:13.514Z,11.20
2019-03-27T23:10:45.555Z,11.20
2019-03-27T23:13:18.802Z,11.20
2019-03-27T23:15:50.595Z,11.20
2019-03-27T23:18:22.639Z,11.20
2019-03-27T23:20:53.959Z,11.20
2019-03-27T23:23:25.883Z,11.20
2019-03-27T23:26:03.010Z,11.20
2019-03-27T23:28:30.321Z,11.20
2019-03-27T23:31:01.646Z,11.20
2019-03-27T23:33:33.328Z,11.20
2019-03-27T23:36:04.645Z,11.20
2019-03-27T23:38:37.888Z,11.20
2019-03-27T23:41:09.327Z,11.20
2019-03-27T23:43:40.889Z,11.20
2019-03-27T23:46:12.329Z,11.20
2019-03-27T23:48:43.651Z,11.20
2019-03-27T23:51:15.213Z,11.20
2019-03-27T23:53:46.415Z,11.20
2019-03-27T23:56:18.095Z,11.20
2019-03-27T23:58:50.741Z,11.20
